Ship Bottom Boro, New Jersey
Current Conditions -  °F | °C
As of 3:55 PM on Thursday 27 Nov 2014 (Local Time) from KMJX Reporting Station
Broken Clouds Broken Clouds  
Wind Chill: 32°   Ceiling: 2300
Heat Index: 37°   Visibility: 10mi
Dew Point: 28°   Wind: 7mph
Humidity: 70%   Direction: 330°NNW
Pressure: 30.01"   Gusts: NA
Location:  39.623°N, 74.1974°W
Report Text: KMJX 272055Z AUTO 33006KT 10SM BKN023 03/M02 A3001 RMK AO1 52007
Loading
Personal Weather Stations






























Interactive Weather Map New forecast layout! Learn more

10-Day Weather Forecast

Advertisements
Track Severe Weather on mobile